Terminal Aerodrome Forecast
Issued by NWS

Home | Current Version | Previous Version | Graphics & Text | Print | Product List | Glossary On
Versions: 1 2 3 4 5 6 7 8 9 10 11 12 13 14 15 16
000
FTUS43 KGRB 132338
TAFRHI
TAF
KRHI 132338Z 1400/1424 VRB03KT P6SM SCT200
     FM141400 09006KT P6SM SCT120 BKN200
     FM142000 08008KT P6SM VCSH SCT035 BKN100
     FM142200 09007KT 6SM -RA BKN025 OVC035=

USA.gov is the U.S. government's official web portal to all federal, state and local government web resources and services.